createdAt,value
2023-04-10T00:00:03.979Z,5.37
2023-04-10T00:01:04.073Z,5.48
2023-04-10T00:02:03.999Z,5.33
2023-04-10T00:03:04.529Z,5.27
2023-04-10T00:04:04.015Z,4.86
2023-04-10T00:05:03.956Z,4.77
2023-04-10T00:06:03.948Z,4.68
2023-04-10T00:07:04.113Z,4.79
2023-04-10T00:08:03.905Z,4.59
2023-04-10T00:09:04.098Z,4.44
2023-04-10T00:10:04.063Z,4.46
2023-04-10T00:11:03.894Z,4.32
2023-04-10T00:12:03.954Z,4.34
2023-04-10T00:13:03.958Z,4.29
2023-04-10T00:14:04.088Z,4.20
2023-04-10T00:15:03.897Z,4.17
2023-04-10T00:16:03.883Z,4.29
2023-04-10T00:17:03.864Z,4.42
2023-04-10T00:18:03.862Z,4.51
2023-04-10T00:19:03.883Z,4.46
2023-04-10T00:20:03.832Z,4.38
2023-04-10T00:21:03.822Z,4.67
2023-04-10T00:22:03.835Z,4.67
2023-04-10T00:23:03.887Z,4.68
2023-04-10T00:24:03.812Z,4.79
2023-04-10T00:25:03.798Z,4.80
2023-04-10T00:26:03.795Z,4.90
2023-04-10T00:27:03.828Z,4.90
2023-04-10T00:28:03.834Z,5.04
2023-04-10T00:29:03.802Z,5.01
2023-04-10T00:30:03.794Z,5.09
2023-04-10T00:31:03.821Z,5.14
2023-04-10T00:32:03.834Z,5.20
2023-04-10T00:33:03.845Z,5.14
2023-04-10T00:34:03.734Z,5.15
2023-04-10T00:35:03.794Z,5.26
2023-04-10T00:36:03.740Z,5.32
2023-04-10T00:37:03.772Z,5.29
2023-04-10T00:38:03.753Z,5.23
2023-04-10T00:39:03.706Z,5.20
2023-04-10T00:40:03.721Z,5.19
2023-04-10T00:41:03.815Z,5.19
2023-04-10T00:42:03.714Z,5.23
2023-04-10T00:43:03.671Z,5.20
2023-04-10T00:44:03.772Z,5.23
2023-04-10T00:45:03.650Z,5.26
2023-04-10T00:46:03.742Z,5.14
2023-04-10T00:47:03.657Z,5.19
2023-04-10T00:48:03.714Z,5.17
2023-04-10T00:49:03.640Z,5.12
2023-04-10T00:50:03.661Z,5.27
2023-04-10T00:51:03.677Z,5.19
2023-04-10T00:52:03.654Z,5.15
2023-04-10T00:53:03.628Z,4.91
2023-04-10T00:54:03.602Z,4.26
2023-04-10T00:55:03.600Z,4.17
2023-04-10T00:56:03.637Z,4.04
2023-04-10T00:57:03.635Z,4.00
2023-04-10T00:58:03.592Z,4.00
2023-04-10T00:59:05.729Z,4.00
2023-04-10T01:00:03.666Z,3.88
2023-04-10T01:01:03.631Z,3.71
2023-04-10T01:02:03.794Z,3.63
2023-04-10T01:03:03.679Z,3.68
2023-04-10T01:04:03.743Z,3.75
2023-04-10T01:05:03.524Z,3.82
2023-04-10T01:06:03.552Z,3.86
2023-04-10T01:07:03.533Z,3.99
2023-04-10T01:08:03.565Z,4.10
2023-04-10T01:09:03.513Z,4.08
2023-04-10T01:10:03.490Z,3.88
2023-04-10T01:11:03.500Z,4.00
2023-04-10T01:12:03.518Z,4.04
2023-04-10T01:13:03.519Z,4.08
2023-04-10T01:14:03.521Z,4.24
2023-04-10T01:15:03.488Z,4.18
2023-04-10T01:16:03.469Z,4.38
2023-04-10T01:17:03.641Z,4.44
2023-04-10T01:18:03.505Z,4.36
2023-04-10T01:19:03.459Z,4.49
2023-04-10T01:20:03.463Z,4.46
2023-04-10T01:21:03.456Z,4.67
2023-04-10T01:22:03.428Z,4.64
2023-04-10T01:23:03.463Z,4.79
2023-04-10T01:24:03.415Z,4.77
2023-04-10T01:25:03.402Z,4.86
2023-04-10T01:26:03.417Z,4.84
2023-04-10T01:27:03.417Z,4.87
2023-04-10T01:28:03.373Z,4.93
2023-04-10T01:29:04.580Z,4.94
2023-04-10T01:30:03.416Z,4.87
2023-04-10T01:31:03.408Z,4.93
2023-04-10T01:32:03.385Z,4.94
2023-04-10T01:33:03.381Z,4.96
2023-04-10T01:34:03.342Z,4.90
2023-04-10T01:35:03.387Z,4.90
2023-04-10T01:36:03.451Z,4.96
2023-04-10T01:37:03.317Z,4.87
2023-04-10T01:38:03.325Z,4.79
2023-04-10T01:39:03.319Z,4.75
2023-04-10T01:40:03.376Z,4.61
2023-04-10T01:41:03.282Z,4.29
2023-04-10T01:42:03.318Z,4.06
2023-04-10T01:43:03.292Z,4.20
2023-04-10T01:44:03.258Z,4.20
2023-04-10T01:45:03.394Z,4.07
2023-04-10T01:46:03.289Z,4.18
2023-04-10T01:47:03.293Z,4.20
2023-04-10T01:48:03.306Z,4.31
2023-04-10T01:49:03.230Z,4.46
2023-04-10T01:50:03.239Z,4.39
2023-04-10T01:51:03.244Z,4.47
2023-04-10T01:52:03.254Z,4.46
2023-04-10T01:53:03.291Z,4.44
2023-04-10T01:54:04.549Z,4.51
2023-04-10T01:55:03.193Z,4.61
2023-04-10T01:56:03.248Z,4.57
2023-04-10T01:57:03.186Z,4.61
2023-04-10T01:58:03.197Z,4.68
2023-04-10T01:59:03.238Z,4.64
2023-04-10T02:00:03.301Z,4.61
2023-04-10T02:01:03.189Z,4.65
2023-04-10T02:02:03.302Z,4.59
2023-04-10T02:03:03.284Z,4.59
2023-04-10T02:04:03.239Z,4.53
2023-04-10T02:05:03.287Z,4.50
2023-04-10T02:06:03.135Z,4.47
2023-04-10T02:07:03.163Z,4.34
2023-04-10T02:08:03.178Z,4.25
2023-04-10T02:09:03.117Z,4.26
2023-04-10T02:10:03.099Z,4.18
2023-04-10T02:11:03.096Z,4.16
2023-04-10T02:12:03.095Z,4.06
2023-04-10T02:13:03.149Z,3.95
2023-04-10T02:14:03.142Z,3.89
2023-04-10T02:15:03.080Z,3.96
2023-04-10T02:16:04.333Z,3.89
2023-04-10T02:17:04.056Z,3.92
2023-04-10T02:18:03.082Z,3.96
2023-04-10T02:19:03.102Z,4.08
2023-04-10T02:20:03.024Z,4.06
2023-04-10T02:21:03.015Z,3.86
2023-04-10T02:22:04.013Z,3.63
2023-04-10T02:23:03.010Z,3.39
2023-04-10T02:24:03.055Z,3.31
2023-04-10T02:25:02.991Z,3.10
2023-04-10T02:26:02.989Z,3.10
2023-04-10T02:27:03.029Z,3.15
2023-04-10T02:28:02.983Z,3.30
2023-04-10T02:29:03.015Z,3.39
2023-04-10T02:30:02.979Z,3.44
2023-04-10T02:31:02.997Z,3.62
2023-04-10T02:32:02.959Z,3.75
2023-04-10T02:33:03.019Z,3.71
2023-04-10T02:34:02.975Z,3.86
2023-04-10T02:35:02.937Z,3.95
2023-04-10T02:36:02.994Z,3.86
2023-04-10T02:37:02.940Z,3.95
2023-04-10T02:38:02.912Z,3.92
2023-04-10T02:39:02.957Z,3.88
2023-04-10T02:40:02.945Z,3.57
2023-04-10T02:41:02.944Z,3.57
2023-04-10T02:42:02.881Z,3.56
2023-04-10T02:43:02.935Z,3.56
2023-04-10T02:44:02.892Z,3.63
2023-04-10T02:45:02.867Z,3.56
2023-04-10T02:46:02.889Z,3.45
2023-04-10T02:47:02.920Z,3.60
2023-04-10T02:48:03.022Z,3.45
2023-04-10T02:49:02.841Z,3.49
2023-04-10T02:50:02.884Z,3.63
2023-04-10T02:51:02.871Z,3.62
2023-04-10T02:52:02.864Z,3.72
2023-04-10T02:53:02.816Z,3.78
2023-04-10T02:54:02.837Z,3.88
2023-04-10T02:55:02.810Z,3.95
2023-04-10T02:56:02.889Z,4.06
2023-04-10T02:57:02.891Z,4.02
2023-04-10T02:58:02.802Z,3.98
2023-04-10T02:59:02.783Z,3.80
2023-04-10T03:00:02.806Z,3.54
2023-04-10T03:01:02.789Z,3.33
2023-04-10T03:02:03.206Z,3.49
2023-04-10T03:03:02.909Z,3.56
2023-04-10T03:04:02.822Z,3.52
2023-04-10T03:05:02.759Z,3.52
2023-04-10T03:06:02.774Z,3.35
2023-04-10T03:07:02.790Z,3.31
2023-04-10T03:08:02.724Z,3.15
2023-04-10T03:09:02.737Z,3.28
2023-04-10T03:10:02.711Z,3.13
2023-04-10T03:11:02.710Z,2.97
2023-04-10T03:12:02.738Z,3.10
2023-04-10T03:13:02.756Z,3.16
2023-04-10T03:14:02.694Z,3.20
2023-04-10T03:15:02.706Z,3.19
2023-04-10T03:16:02.742Z,3.28
2023-04-10T03:17:02.652Z,3.34
2023-04-10T03:18:02.733Z,3.33
2023-04-10T03:19:02.649Z,3.30
2023-04-10T03:20:02.632Z,3.54
2023-04-10T03:21:02.622Z,3.50
2023-04-10T03:22:02.645Z,3.52
2023-04-10T03:23:02.627Z,3.52
2023-04-10T03:24:02.683Z,3.70
2023-04-10T03:25:02.630Z,3.57
2023-04-10T03:26:02.647Z,3.64
2023-04-10T03:27:02.609Z,3.45
2023-04-10T03:28:02.626Z,3.41
2023-04-10T03:29:02.622Z,3.46
2023-04-10T03:30:02.614Z,3.49
2023-04-10T03:31:02.584Z,3.54
2023-04-10T03:32:13.307Z,3.54
2023-04-10T03:33:03.614Z,3.67
2023-04-10T03:34:02.599Z,3.71
2023-04-10T03:35:02.641Z,3.78
2023-04-10T03:36:02.610Z,3.45
2023-04-10T03:37:02.565Z,3.28
2023-04-10T03:38:02.545Z,3.12
2023-04-10T03:39:02.517Z,3.12
2023-04-10T03:40:02.566Z,3.16
2023-04-10T03:41:02.549Z,3.10
2023-04-10T03:42:02.618Z,3.10
2023-04-10T03:43:02.539Z,3.17
2023-04-10T03:44:02.480Z,3.28
2023-04-10T03:45:02.499Z,3.35
2023-04-10T03:46:03.557Z,3.49
2023-04-10T03:47:02.492Z,3.37
2023-04-10T03:48:02.515Z,3.42
2023-04-10T03:49:02.446Z,3.45
2023-04-10T03:50:02.488Z,3.45
2023-04-10T03:51:02.437Z,3.54
2023-04-10T03:52:02.416Z,3.67
2023-04-10T03:53:02.418Z,3.62
2023-04-10T03:54:02.443Z,3.75
2023-04-10T03:55:02.466Z,3.70
2023-04-10T03:56:02.457Z,3.74
2023-04-10T03:57:02.472Z,3.75
2023-04-10T03:58:02.404Z,3.84
2023-04-10T03:59:02.381Z,3.89
2023-04-10T04:00:02.415Z,3.84
2023-04-10T04:01:02.403Z,3.88
2023-04-10T04:02:02.429Z,3.77
2023-04-10T04:03:02.576Z,3.89
2023-04-10T04:04:02.519Z,3.81
2023-04-10T04:05:02.442Z,3.88
2023-04-10T04:06:02.380Z,3.68
2023-04-10T04:07:02.401Z,3.75
2023-04-10T04:08:02.350Z,3.70
2023-04-10T04:09:02.316Z,3.80
2023-04-10T04:10:02.337Z,3.64
2023-04-10T04:11:02.291Z,3.68
2023-04-10T04:12:02.348Z,3.74
2023-04-10T04:13:02.299Z,3.75
2023-04-10T04:14:02.398Z,3.72
2023-04-10T04:15:02.280Z,3.81
2023-04-10T04:16:02.269Z,3.84
2023-04-10T04:17:02.338Z,3.68
2023-04-10T04:18:02.314Z,3.67
2023-04-10T04:19:02.303Z,3.72
2023-04-10T04:20:02.314Z,3.54
2023-04-10T04:21:02.239Z,3.54
2023-04-10T04:22:02.256Z,3.50
2023-04-10T04:23:02.216Z,3.46
2023-04-10T04:24:02.238Z,3.44
2023-04-10T04:25:02.246Z,3.54
2023-04-10T04:26:02.197Z,3.57
2023-04-10T04:27:02.213Z,3.52
2023-04-10T04:28:02.213Z,3.62
2023-04-10T04:29:02.249Z,3.62
2023-04-10T04:30:02.180Z,3.60
2023-04-10T04:31:02.180Z,3.59
2023-04-10T04:32:02.191Z,3.57
2023-04-10T04:33:02.184Z,3.60
2023-04-10T04:34:02.252Z,3.68
2023-04-10T04:35:02.153Z,3.64
2023-04-10T04:36:02.283Z,3.74
2023-04-10T04:37:02.160Z,3.68
2023-04-10T04:38:02.129Z,3.74
2023-04-10T04:39:02.154Z,3.77
2023-04-10T04:40:02.204Z,3.78
2023-04-10T04:41:02.097Z,3.71
2023-04-10T04:42:02.090Z,3.67
2023-04-10T04:43:02.114Z,3.67
2023-04-10T04:44:02.110Z,3.71
2023-04-10T04:45:02.109Z,3.78
2023-04-10T04:46:02.126Z,3.75
2023-04-10T04:47:02.077Z,3.74
2023-04-10T04:48:02.117Z,3.89
2023-04-10T04:49:02.149Z,3.81
2023-04-10T04:50:02.098Z,3.84
2023-04-10T04:51:02.041Z,3.68
2023-04-10T04:52:02.088Z,3.60
2023-04-10T04:53:02.033Z,3.46
2023-04-10T04:54:02.026Z,3.56
2023-04-10T04:55:02.071Z,3.62
2023-04-10T04:56:02.078Z,3.62
2023-04-10T04:57:02.006Z,3.67
2023-04-10T04:58:02.011Z,3.50
2023-04-10T04:59:01.990Z,3.42
2023-04-10T05:00:02.074Z,3.42
2023-04-10T05:01:02.054Z,3.44
2023-04-10T05:02:02.200Z,3.56
2023-04-10T05:03:02.108Z,3.68
2023-04-10T05:04:02.129Z,3.71
2023-04-10T05:05:02.007Z,3.74
2023-04-10T05:06:01.976Z,4.02
2023-04-10T05:07:01.996Z,4.17
2023-04-10T05:08:01.955Z,4.44
2023-04-10T05:09:01.959Z,4.61
2023-04-10T05:10:01.963Z,4.71
2023-04-10T05:11:01.926Z,4.87
2023-04-10T05:12:01.946Z,5.04
2023-04-10T05:13:01.922Z,5.29
2023-04-10T05:14:01.944Z,5.32
2023-04-10T05:15:01.885Z,5.40
2023-04-10T05:16:01.896Z,5.44
2023-04-10T05:17:03.637Z,5.56
2023-04-10T05:18:02.978Z,5.75
2023-04-10T05:19:01.915Z,5.84
2023-04-10T05:20:01.859Z,6.14
2023-04-10T05:21:01.833Z,6.36
2023-04-10T05:22:01.883Z,6.46
2023-04-10T05:23:01.827Z,6.54
2023-04-10T05:24:01.837Z,6.69
2023-04-10T05:25:01.843Z,6.64
2023-04-10T05:26:01.804Z,6.61
2023-04-10T05:27:01.893Z,6.36
2023-04-10T05:28:01.798Z,6.21
2023-04-10T05:29:01.823Z,5.62
2023-04-10T05:30:01.801Z,5.58
2023-04-10T05:31:01.780Z,5.59
2023-04-10T05:32:01.846Z,5.58
2023-04-10T05:33:01.891Z,5.83
2023-04-10T05:34:01.856Z,5.95
2023-04-10T05:35:01.757Z,6.20
2023-04-10T05:36:01.907Z,6.40
2023-04-10T05:37:01.743Z,6.79
2023-04-10T05:38:01.803Z,6.79
2023-04-10T05:39:01.745Z,6.75
2023-04-10T05:40:01.732Z,6.86
2023-04-10T05:41:01.731Z,6.94
2023-04-10T05:42:01.705Z,6.94
2023-04-10T05:43:01.739Z,7.04
2023-04-10T05:44:01.713Z,7.15
2023-04-10T05:45:01.688Z,7.19
2023-04-10T05:46:01.827Z,7.11
2023-04-10T05:47:01.684Z,7.18
2023-04-10T05:48:01.788Z,7.29
2023-04-10T05:49:01.726Z,7.39
2023-04-10T05:50:01.706Z,7.37
2023-04-10T05:51:01.722Z,7.12
2023-04-10T05:52:01.668Z,7.27
2023-04-10T05:53:01.650Z,7.09
2023-04-10T05:54:01.690Z,7.26
2023-04-10T05:55:01.635Z,6.96
2023-04-10T05:56:01.641Z,6.61
2023-04-10T05:57:01.666Z,6.68
2023-04-10T05:58:01.625Z,6.58
2023-04-10T05:59:01.601Z,6.28
2023-04-10T06:00:01.596Z,6.38
2023-04-10T06:01:01.640Z,6.42
2023-04-10T06:02:01.684Z,6.46
2023-04-10T06:03:01.657Z,6.43
2023-04-10T06:04:01.724Z,6.68
2023-04-10T06:05:01.595Z,6.83
2023-04-10T06:06:01.602Z,6.96
2023-04-10T06:07:01.549Z,6.99
2023-04-10T06:08:01.571Z,6.87
2023-04-10T06:09:01.550Z,6.73
2023-04-10T06:10:01.506Z,6.83
2023-04-10T06:11:01.547Z,6.82
2023-04-10T06:12:01.523Z,6.86
2023-04-10T06:13:01.547Z,6.83
2023-04-10T06:14:01.498Z,7.09
2023-04-10T06:15:01.500Z,7.26
2023-04-10T06:16:02.160Z,7.26
2023-04-10T06:17:01.484Z,7.32
2023-04-10T06:18:01.577Z,6.90
2023-04-10T06:19:01.487Z,6.99
2023-04-10T06:20:01.536Z,6.87
2023-04-10T06:21:01.469Z,6.81
2023-04-10T06:22:01.529Z,7.07
2023-04-10T06:23:01.438Z,6.93
2023-04-10T06:24:01.452Z,7.00
2023-04-10T06:25:01.449Z,7.08
2023-04-10T06:26:01.497Z,7.04
2023-04-10T06:27:01.536Z,6.75
2023-04-10T06:28:01.440Z,6.63
2023-04-10T06:29:01.519Z,6.68
2023-04-10T06:30:01.375Z,6.75
2023-04-10T06:31:01.531Z,6.75
2023-04-10T06:32:01.412Z,6.65
2023-04-10T06:33:01.403Z,6.75
2023-04-10T06:34:01.427Z,6.42
2023-04-10T06:35:01.571Z,6.30
2023-04-10T06:36:01.410Z,6.51
2023-04-10T06:37:01.462Z,6.83
2023-04-10T06:38:01.476Z,7.00
2023-04-10T06:39:01.354Z,6.81
2023-04-10T06:40:01.399Z,6.96
2023-04-10T06:41:01.328Z,7.14
2023-04-10T06:42:01.359Z,7.37
2023-04-10T06:43:01.412Z,7.52
2023-04-10T06:44:03.287Z,7.24
2023-04-10T06:45:02.426Z,7.09
2023-04-10T06:46:01.590Z,7.24
2023-04-10T06:47:01.444Z,7.44
2023-04-10T06:48:01.467Z,7.39
2023-04-10T06:49:01.345Z,7.47
2023-04-10T06:50:01.339Z,7.51
2023-04-10T06:51:01.404Z,7.86
2023-04-10T06:52:01.398Z,8.09
2023-04-10T06:53:01.342Z,8.28
2023-04-10T06:54:01.341Z,8.70
2023-04-10T06:55:01.353Z,8.91
2023-04-10T06:56:03.365Z,9.20
2023-04-10T06:57:01.345Z,9.32
2023-04-10T06:58:01.373Z,9.59
2023-04-10T06:59:01.368Z,9.71
2023-04-10T07:00:01.265Z,9.81
2023-04-10T07:01:01.489Z,9.86
2023-04-10T07:02:01.479Z,10.07
2023-04-10T07:03:01.363Z,10.16
2023-04-10T07:04:01.291Z,10.20
2023-04-10T07:05:01.209Z,10.13
2023-04-10T07:06:01.233Z,10.10
2023-04-10T07:07:01.196Z,10.07
2023-04-10T07:08:01.421Z,10.18
2023-04-10T07:09:01.200Z,10.07
2023-04-10T07:10:01.484Z,10.10
2023-04-10T07:11:01.296Z,10.04
2023-04-10T07:12:01.289Z,10.17
2023-04-10T07:13:01.321Z,10.22
2023-04-10T07:14:01.157Z,10.28
2023-04-10T07:15:01.208Z,10.38
2023-04-10T07:16:01.212Z,10.44
2023-04-10T07:17:01.244Z,10.60
2023-04-10T07:18:01.269Z,10.58
2023-04-10T07:19:01.257Z,10.57
2023-04-10T07:20:01.154Z,10.54
2023-04-10T07:21:01.129Z,10.63
2023-04-10T07:22:01.200Z,10.70
2023-04-10T07:23:01.281Z,10.78
2023-04-10T07:24:01.151Z,10.99
2023-04-10T07:25:01.106Z,10.91
2023-04-10T07:26:01.118Z,10.95
2023-04-10T07:27:01.108Z,11.06
2023-04-10T07:28:01.093Z,11.13
2023-04-10T07:29:01.117Z,11.12
2023-04-10T07:30:01.232Z,10.81
2023-04-10T07:31:01.077Z,10.94
2023-04-10T07:32:01.180Z,10.88
2023-04-10T07:33:01.379Z,10.93
2023-04-10T07:34:01.246Z,10.86
2023-04-10T07:35:01.176Z,10.62
2023-04-10T07:36:01.093Z,10.35
2023-04-10T07:37:01.068Z,10.36
2023-04-10T07:38:01.047Z,10.46
2023-04-10T07:39:01.121Z,10.58
2023-04-10T07:40:01.148Z,10.13
2023-04-10T07:41:01.148Z,10.11
2023-04-10T07:42:01.125Z,10.22
2023-04-10T07:43:01.050Z,10.32
2023-04-10T07:44:01.144Z,10.42
2023-04-10T07:45:01.023Z,10.60
2023-04-10T07:46:01.041Z,10.73
2023-04-10T07:47:01.021Z,10.88
2023-04-10T07:48:00.998Z,10.95
2023-04-10T07:49:01.138Z,11.09
2023-04-10T07:50:01.031Z,11.33
2023-04-10T07:51:01.030Z,11.49
2023-04-10T07:52:00.974Z,11.64
2023-04-10T07:53:01.009Z,11.78
2023-04-10T07:54:00.974Z,12.03
2023-04-10T07:55:00.949Z,12.08
2023-04-10T07:56:01.028Z,12.18
2023-04-10T07:57:01.024Z,12.18
2023-04-10T07:58:01.055Z,12.11
2023-04-10T07:59:00.954Z,12.18
2023-04-10T08:00:00.950Z,12.37
2023-04-10T08:01:01.003Z,12.66
2023-04-10T08:02:01.014Z,12.61
2023-04-10T08:03:01.259Z,12.87
2023-04-10T08:04:03.863Z,12.96
2023-04-10T08:05:00.998Z,13.06
2023-04-10T08:06:00.928Z,13.21
2023-04-10T08:07:01.028Z,13.27
2023-04-10T08:08:00.934Z,13.38
2023-04-10T08:09:00.930Z,13.53
2023-04-10T08:10:00.862Z,13.69
2023-04-10T08:11:00.849Z,13.65
2023-04-10T08:12:00.852Z,13.61
2023-04-10T08:13:00.880Z,13.79
2023-04-10T08:14:00.851Z,13.91
2023-04-10T08:15:00.838Z,13.94
2023-04-10T08:16:00.907Z,14.09
2023-04-10T08:17:00.887Z,14.17
2023-04-10T08:18:00.868Z,14.16
2023-04-10T08:19:00.831Z,14.23
2023-04-10T08:20:00.782Z,14.30
2023-04-10T08:21:00.842Z,14.53
2023-04-10T08:22:00.788Z,14.75
2023-04-10T08:23:09.179Z,14.71
2023-04-10T08:24:02.770Z,14.57
2023-04-10T08:25:00.768Z,13.81
2023-04-10T08:26:00.762Z,13.57
2023-04-10T08:27:00.758Z,13.79
2023-04-10T08:28:00.766Z,13.93
2023-04-10T08:29:00.889Z,14.20
2023-04-10T08:30:00.732Z,14.27
2023-04-10T08:31:00.748Z,14.44
2023-04-10T08:32:00.748Z,14.08
2023-04-10T08:33:00.716Z,14.11
2023-04-10T08:34:00.796Z,14.12
2023-04-10T08:35:00.697Z,14.09
2023-04-10T08:36:00.700Z,14.16
2023-04-10T08:37:00.670Z,14.17
2023-04-10T08:38:12.620Z,14.13
2023-04-10T08:39:02.685Z,13.93
2023-04-10T08:40:00.651Z,14.01
2023-04-10T08:41:00.655Z,14.19
2023-04-10T08:42:00.652Z,14.54
2023-04-10T08:43:00.639Z,14.57
2023-04-10T08:44:00.668Z,14.69
2023-04-10T08:45:00.652Z,14.82
2023-04-10T08:46:00.640Z,14.67
2023-04-10T08:47:00.610Z,14.91
2023-04-10T08:48:00.680Z,15.03
2023-04-10T08:49:00.655Z,15.15
2023-04-10T08:50:00.620Z,15.12
2023-04-10T08:51:00.573Z,15.11
2023-04-10T08:52:00.618Z,15.12
2023-04-10T08:53:00.597Z,15.13
2023-04-10T08:54:00.561Z,15.13
2023-04-10T08:55:00.589Z,15.15
2023-04-10T08:56:00.542Z,15.04
2023-04-10T08:57:00.573Z,14.95
2023-04-10T08:58:01.725Z,15.00
2023-04-10T08:59:01.511Z,15.22
2023-04-10T09:00:04.039Z,15.34
2023-04-10T09:01:01.498Z,15.27
2023-04-10T09:02:00.523Z,15.33
2023-04-10T09:03:00.645Z,15.23
2023-04-10T09:04:01.075Z,15.25
2023-04-10T09:05:00.513Z,15.27
2023-04-10T09:06:00.476Z,15.28
2023-04-10T09:07:00.530Z,15.46
2023-04-10T09:08:00.457Z,15.51
2023-04-10T09:10:00.452Z,15.58
2023-04-10T09:11:00.443Z,15.48
2023-04-10T09:12:00.747Z,15.49
2023-04-10T09:13:00.396Z,15.70
2023-04-10T09:14:00.390Z,15.80
2023-04-10T09:15:00.422Z,15.85
2023-04-10T09:16:00.651Z,15.91
2023-04-10T09:17:00.413Z,15.91
2023-04-10T09:18:00.379Z,15.58
2023-04-10T09:19:00.361Z,15.51
2023-04-10T09:20:00.384Z,15.55
2023-04-10T09:21:00.405Z,15.53
2023-04-10T09:22:00.334Z,15.41
2023-04-10T09:23:00.310Z,15.40
2023-04-10T09:24:00.316Z,15.60
2023-04-10T09:25:00.324Z,15.64
2023-04-10T09:26:00.339Z,15.60
2023-04-10T09:27:00.286Z,15.64
2023-04-10T09:28:00.333Z,15.55
2023-04-10T09:29:00.300Z,15.59
2023-04-10T09:30:00.252Z,15.60
2023-04-10T09:31:00.259Z,15.62
2023-04-10T09:32:00.228Z,15.66
2023-04-10T09:33:02.000Z,15.60
2023-04-10T09:34:00.237Z,15.55
2023-04-10T09:35:00.225Z,15.86
2023-04-10T09:36:00.270Z,15.78
2023-04-10T09:37:00.244Z,15.86
2023-04-10T09:38:00.228Z,16.01
2023-04-10T09:39:00.206Z,15.96
2023-04-10T09:40:00.192Z,15.88
2023-04-10T09:41:00.182Z,15.73
2023-04-10T09:42:00.169Z,15.80
2023-04-10T09:43:00.191Z,15.91
2023-04-10T09:44:00.156Z,16.06
2023-04-10T09:45:00.236Z,16.04
2023-04-10T09:46:00.135Z,16.11
2023-04-10T09:47:00.343Z,16.03
2023-04-10T09:48:00.237Z,16.06
2023-04-10T09:49:00.123Z,16.06
2023-04-10T09:50:00.204Z,16.01
2023-04-10T09:51:00.108Z,16.06
2023-04-10T09:52:00.138Z,15.99
2023-04-10T09:53:00.119Z,15.85
2023-04-10T09:54:00.061Z,15.84
2023-04-10T09:55:00.125Z,15.89
2023-04-10T09:56:00.116Z,15.99
2023-04-10T09:57:00.042Z,15.74
2023-04-10T09:58:00.040Z,15.73
2023-04-10T09:59:00.115Z,15.77
2023-04-10T10:00:00.129Z,15.92
2023-04-10T10:01:00.085Z,15.93
2023-04-10T10:02:00.105Z,16.08
2023-04-10T10:03:00.065Z,16.13
2023-04-10T10:04:00.021Z,16.33
2023-04-10T10:05:00.069Z,16.40
2023-04-10T10:05:59.989Z,16.59
2023-04-10T10:06:59.966Z,16.51
2023-04-10T10:07:59.942Z,16.59
2023-04-10T10:08:59.925Z,16.66
2023-04-10T10:09:59.934Z,16.65
2023-04-10T10:10:59.986Z,16.67
2023-04-10T10:11:59.909Z,16.69
2023-04-10T10:12:59.960Z,16.44
2023-04-10T10:13:59.902Z,16.37
2023-04-10T10:14:59.905Z,16.32
2023-04-10T10:15:59.953Z,16.22
2023-04-10T10:16:59.906Z,16.25
2023-04-10T10:17:59.982Z,16.34
2023-04-10T10:18:59.862Z,16.41
2023-04-10T10:19:59.860Z,16.55
2023-04-10T10:20:59.891Z,16.67
2023-04-10T10:21:59.889Z,16.72
2023-04-10T10:22:59.858Z,16.84
2023-04-10T10:23:59.904Z,16.81
2023-04-10T10:24:59.818Z,16.91
2023-04-10T10:26:01.695Z,16.41
2023-04-10T10:26:59.888Z,16.42
2023-04-10T10:27:59.811Z,16.30
2023-04-10T10:28:59.800Z,16.41
2023-04-10T10:30:01.265Z,16.52
2023-04-10T10:31:00.777Z,16.41
2023-04-10T10:31:59.970Z,16.27
2023-04-10T10:32:59.937Z,16.29
2023-04-10T10:33:59.759Z,16.40
2023-04-10T10:34:59.762Z,16.29
2023-04-10T10:35:59.742Z,16.41
2023-04-10T10:36:59.797Z,16.54
2023-04-10T10:37:59.725Z,16.73
2023-04-10T10:38:59.852Z,16.87
2023-04-10T10:39:59.704Z,16.75
2023-04-10T10:40:59.713Z,16.87
2023-04-10T10:41:59.867Z,16.96
2023-04-10T10:43:00.719Z,16.98
2023-04-10T10:43:59.681Z,17.06
2023-04-10T10:44:59.829Z,17.28
2023-04-10T10:45:59.769Z,17.18
2023-04-10T10:47:00.647Z,17.06
2023-04-10T10:47:59.723Z,17.00
2023-04-10T10:48:59.645Z,17.03
2023-04-10T10:49:59.652Z,17.02
2023-04-10T10:50:59.636Z,17.09
2023-04-10T10:51:59.617Z,17.06
2023-04-10T10:52:59.686Z,17.02
2023-04-10T10:53:59.629Z,17.28
2023-04-10T10:54:59.927Z,17.35
2023-04-10T10:56:00.603Z,17.21
2023-04-10T10:56:59.590Z,17.03
2023-04-10T10:57:59.631Z,17.12
2023-04-10T10:58:59.573Z,17.24
2023-04-10T10:59:59.552Z,17.05
2023-04-10T11:00:59.605Z,17.03
2023-04-10T11:01:59.613Z,17.17
2023-04-10T11:02:59.621Z,17.22
2023-04-10T11:03:59.607Z,17.30
2023-04-10T11:04:59.538Z,17.18
2023-04-10T11:05:59.564Z,17.14
2023-04-10T11:06:59.546Z,17.28
2023-04-10T11:07:59.514Z,17.07
2023-04-10T11:08:59.521Z,17.00
2023-04-10T11:09:59.487Z,17.21
2023-04-10T11:10:59.501Z,17.28
2023-04-10T11:11:59.496Z,17.10
2023-04-10T11:12:59.465Z,17.07
2023-04-10T11:13:59.520Z,17.05
2023-04-10T11:14:59.463Z,17.03
2023-04-10T11:15:59.486Z,17.25
2023-04-10T11:16:59.517Z,17.15
2023-04-10T11:17:59.475Z,17.33
2023-04-10T11:19:13.117Z,17.47
2023-04-10T11:20:01.417Z,17.55
2023-04-10T11:20:59.423Z,17.63
2023-04-10T11:21:59.441Z,17.57
2023-04-10T11:22:59.391Z,17.53
2023-04-10T11:23:59.494Z,17.65
2023-04-10T11:24:59.405Z,17.51
2023-04-10T11:25:59.377Z,17.25
2023-04-10T11:26:59.413Z,17.12
2023-04-10T11:27:59.370Z,17.15
2023-04-10T11:28:59.353Z,17.33
2023-04-10T11:29:59.387Z,17.38
2023-04-10T11:30:59.342Z,17.39
2023-04-10T11:31:59.392Z,17.39
2023-04-10T11:32:59.331Z,17.15
2023-04-10T11:33:59.303Z,17.24
2023-04-10T11:34:59.310Z,17.20
2023-04-10T11:35:59.350Z,17.12
2023-04-10T11:36:59.299Z,17.00
2023-04-10T11:37:59.269Z,16.98
2023-04-10T11:38:59.275Z,16.78
2023-04-10T11:39:59.253Z,16.66
2023-04-10T11:40:59.308Z,16.70
2023-04-10T11:41:59.302Z,16.70
2023-04-10T11:42:59.284Z,16.72
2023-04-10T11:44:00.243Z,16.73
2023-04-10T11:44:59.265Z,16.75
2023-04-10T11:45:59.310Z,16.85
2023-04-10T11:46:59.240Z,16.90
2023-04-10T11:47:59.337Z,16.81
2023-04-10T11:48:59.234Z,16.91
2023-04-10T11:49:59.218Z,16.95
2023-04-10T11:50:59.191Z,16.96
2023-04-10T11:51:59.220Z,17.03
2023-04-10T11:52:59.180Z,17.00
2023-04-10T11:53:59.184Z,17.14
2023-04-10T11:54:59.153Z,17.32
2023-04-10T11:55:59.144Z,17.33
2023-04-10T11:56:59.203Z,17.28
2023-04-10T11:57:59.179Z,17.39
2023-04-10T11:58:59.136Z,17.39
2023-04-10T11:59:59.109Z,17.55
2023-04-10T12:00:59.141Z,17.39
2023-04-10T12:01:59.237Z,17.39
2023-04-10T12:02:59.198Z,17.46
2023-04-10T12:03:59.262Z,17.62
2023-04-10T12:04:59.120Z,17.57
2023-04-10T12:05:59.071Z,17.60
2023-04-10T12:06:59.070Z,17.58
2023-04-10T12:07:59.094Z,17.36
2023-04-10T12:08:59.123Z,17.30
2023-04-10T12:09:59.058Z,17.12
2023-04-10T12:10:59.042Z,17.17
2023-04-10T12:11:59.044Z,17.02
2023-04-10T12:12:59.150Z,16.99
2023-04-10T12:13:59.079Z,16.99
2023-04-10T12:14:59.057Z,16.96
2023-04-10T12:15:59.133Z,17.10
2023-04-10T12:16:59.021Z,17.05
2023-04-10T12:17:59.206Z,17.05
2023-04-10T12:18:59.031Z,17.22
2023-04-10T12:19:58.985Z,17.17
2023-04-10T12:20:58.975Z,17.03
2023-04-10T12:21:59.008Z,17.15
2023-04-10T12:22:58.953Z,17.02
2023-04-10T12:23:58.976Z,17.05
2023-04-10T12:24:59.018Z,17.10
2023-04-10T12:25:58.968Z,17.12
2023-04-10T12:26:59.681Z,17.14
2023-04-10T12:27:58.939Z,17.15
2023-04-10T12:28:58.913Z,17.12
2023-04-10T12:29:58.966Z,17.14
2023-04-10T12:30:58.939Z,17.24
2023-04-10T12:31:58.970Z,17.20
2023-04-10T12:32:58.970Z,17.25
2023-04-10T12:33:59.092Z,17.22
2023-04-10T12:34:59.294Z,17.15
2023-04-10T12:35:58.904Z,17.05
2023-04-10T12:36:58.909Z,17.06
2023-04-10T12:37:58.930Z,17.05
2023-04-10T12:38:58.887Z,17.02
2023-04-10T12:39:58.933Z,17.09
2023-04-10T12:40:58.847Z,17.06
2023-04-10T12:41:58.848Z,17.12
2023-04-10T12:42:58.814Z,16.90
2023-04-10T12:43:58.848Z,16.82
2023-04-10T12:44:58.873Z,16.87
2023-04-10T12:45:58.818Z,16.84
2023-04-10T12:46:58.835Z,16.90
2023-04-10T12:47:58.838Z,16.87
2023-04-10T12:48:58.791Z,16.82
2023-04-10T12:49:58.772Z,16.87
2023-04-10T12:50:58.795Z,16.73
2023-04-10T12:51:58.799Z,16.85
2023-04-10T12:52:58.807Z,16.92
2023-04-10T12:53:58.745Z,17.00
2023-04-10T12:54:58.751Z,17.20
2023-04-10T12:55:58.818Z,17.24
2023-04-10T12:56:58.762Z,17.42
2023-04-10T12:57:58.750Z,17.47
2023-04-10T12:58:58.765Z,17.57
2023-04-10T12:59:58.734Z,17.47
2023-04-10T13:00:58.727Z,17.42
2023-04-10T13:01:58.845Z,17.43
2023-04-10T13:02:58.870Z,17.39
2023-04-10T13:03:58.843Z,17.39
2023-04-10T13:04:58.702Z,17.25
2023-04-10T13:05:58.747Z,17.36
2023-04-10T13:06:58.667Z,17.39